createdAt,value
2023-02-11T00:02:36.281Z,76.58
2023-02-11T00:07:33.406Z,76.50
2023-02-11T00:12:26.295Z,76.48
2023-02-11T00:17:19.152Z,76.18
2023-02-11T00:22:11.890Z,76.34
2023-02-11T00:27:04.803Z,76.70
2023-02-11T00:31:57.715Z,76.38
2023-02-11T00:36:50.652Z,76.54
2023-02-11T00:41:43.409Z,76.32
2023-02-11T00:46:38.320Z,76.43
2023-02-11T00:51:31.168Z,76.17
2023-02-11T00:56:23.989Z,76.56
2023-02-11T01:01:16.909Z,76.25
2023-02-11T01:06:10.798Z,76.17
2023-02-11T01:11:07.032Z,75.93
2023-02-11T01:16:00.371Z,76.11
2023-02-11T01:20:54.429Z,76.10
2023-02-11T01:25:47.276Z,75.98
2023-02-11T01:30:40.478Z,75.86
2023-02-11T01:35:33.362Z,75.88
2023-02-11T01:40:26.295Z,75.63
2023-02-11T01:45:47.460Z,75.55
2023-02-11T01:50:43.608Z,75.92
2023-02-11T01:55:54.142Z,75.80
2023-02-11T02:00:49.322Z,75.84
2023-02-11T02:06:01.202Z,75.39
2023-02-11T02:10:56.710Z,75.50
2023-02-11T02:16:03.200Z,75.16
2023-02-11T02:21:46.591Z,75.59
2023-02-11T02:26:57.890Z,75.13
2023-02-11T02:32:01.049Z,75.10
2023-02-11T02:37:06.079Z,75.18
2023-02-11T02:41:59.488Z,75.07
2023-02-11T02:46:52.379Z,75.13
2023-02-11T02:52:00.880Z,75.27
2023-02-11T02:57:06.329Z,75.02
2023-02-11T03:02:09.491Z,74.82
2023-02-11T03:07:13.520Z,74.87
2023-02-11T03:12:08.591Z,75.07
2023-02-11T03:17:05.512Z,74.93
2023-02-11T03:21:59.024Z,74.81
2023-02-11T03:26:54.919Z,74.76
2023-02-11T03:32:06.816Z,74.61
2023-02-11T03:37:36.590Z,74.71
2023-02-11T03:42:35.640Z,74.53
2023-02-11T03:47:33.403Z,74.57
2023-02-11T03:52:28.013Z,74.49
2023-02-11T03:57:20.844Z,74.58
2023-02-11T04:02:13.613Z,74.23
2023-02-11T04:07:06.433Z,74.36
2023-02-11T04:11:59.192Z,74.19
2023-02-11T04:16:51.964Z,74.15
2023-02-11T04:21:45.116Z,74.06
2023-02-11T04:26:37.892Z,74.11
2023-02-11T04:31:30.696Z,73.54
2023-02-11T04:36:23.566Z,73.65
2023-02-11T04:41:16.491Z,73.81
2023-02-11T04:46:09.300Z,73.48
2023-02-11T04:51:03.345Z,73.45
2023-02-11T04:55:56.574Z,73.50
2023-02-11T05:00:49.511Z,73.47
2023-02-11T05:05:43.865Z,73.36
2023-02-11T05:10:37.365Z,73.23
2023-02-11T05:15:30.329Z,73.32
2023-02-11T05:20:23.623Z,73.27
2023-02-11T05:25:16.431Z,73.17
2023-02-11T05:30:10.417Z,73.06
2023-02-11T05:35:03.212Z,73.11
2023-02-11T05:39:56.028Z,73.03
2023-02-11T05:44:50.631Z,72.64
2023-02-11T05:49:43.574Z,72.98
2023-02-11T05:54:36.353Z,72.92
2023-02-11T05:59:29.163Z,72.58
2023-02-11T06:04:21.966Z,72.86
2023-02-11T06:09:14.817Z,72.69
2023-02-11T06:14:07.680Z,72.63
2023-02-11T06:19:00.462Z,72.63
2023-02-11T06:23:53.233Z,72.59
2023-02-11T06:28:46.204Z,72.32
2023-02-11T06:33:39.933Z,72.32
2023-02-11T06:38:32.690Z,72.49
2023-02-11T06:43:25.461Z,72.35
2023-02-11T06:48:18.245Z,72.02
2023-02-11T06:53:11.055Z,71.82
2023-02-11T06:58:04.142Z,71.62
2023-02-11T07:02:57.432Z,71.77
2023-02-11T07:07:50.361Z,71.46
2023-02-11T07:12:43.143Z,71.34
2023-02-11T07:17:36.746Z,71.18
2023-02-11T07:22:29.515Z,71.39
2023-02-11T07:27:22.283Z,71.49
2023-02-11T07:32:15.459Z,71.27
2023-02-11T07:37:08.243Z,71.58
2023-02-11T07:42:01.285Z,71.21
2023-02-11T07:46:54.752Z,71.75
2023-02-11T07:51:49.219Z,71.90
2023-02-11T07:56:42.075Z,72.29
2023-02-11T08:01:34.897Z,72.07
2023-02-11T08:06:31.506Z,72.50
2023-02-11T08:11:27.802Z,72.76
2023-02-11T08:16:32.097Z,72.92
2023-02-11T08:21:25.318Z,72.87
2023-02-11T08:26:23.605Z,73.08
2023-02-11T08:31:23.016Z,73.47
2023-02-11T08:36:22.350Z,73.88
2023-02-11T08:41:16.494Z,74.34
2023-02-11T08:46:13.010Z,74.54
2023-02-11T08:51:15.920Z,74.91
2023-02-11T08:56:12.155Z,75.27
2023-02-11T09:01:19.711Z,75.44
2023-02-11T09:06:15.136Z,75.88
2023-02-11T09:11:08.876Z,76.27
2023-02-11T09:16:03.215Z,76.45
2023-02-11T09:21:07.560Z,76.40
2023-02-11T09:26:00.313Z,76.39
2023-02-11T09:30:53.556Z,76.57
2023-02-11T09:35:46.548Z,76.73
2023-02-11T09:40:44.823Z,76.98
2023-02-11T09:45:38.022Z,77.11
2023-02-11T09:50:36.299Z,77.28
2023-02-11T09:55:34.273Z,77.49
2023-02-11T10:00:41.292Z,77.64
2023-02-11T10:05:40.144Z,77.79
2023-02-11T10:10:45.721Z,77.99
2023-02-11T10:15:53.386Z,78.18
2023-02-11T10:21:13.620Z,78.47
2023-02-11T10:26:15.104Z,78.68
2023-02-11T10:31:15.915Z,78.71
2023-02-11T10:36:10.256Z,79.14
2023-02-11T10:41:03.092Z,79.29
2023-02-11T10:45:57.891Z,79.38
2023-02-11T10:50:51.036Z,79.54
2023-02-11T10:55:57.395Z,79.74
2023-02-11T11:00:55.393Z,79.78
2023-02-11T11:05:58.873Z,80.05
2023-02-11T11:11:05.972Z,80.06
2023-02-11T11:16:10.861Z,80.32
2023-02-11T11:21:08.016Z,80.47
2023-02-11T11:26:08.224Z,80.37
2023-02-11T11:31:01.716Z,80.87
2023-02-11T11:36:04.257Z,80.68
2023-02-11T11:41:16.275Z,80.93
2023-02-11T11:46:12.365Z,81.21
2023-02-11T11:51:12.429Z,81.59
2023-02-11T11:56:18.231Z,81.76
2023-02-11T12:01:28.010Z,81.75
2023-02-11T12:07:02.665Z,81.51
2023-02-11T12:12:16.937Z,81.80
2023-02-11T12:17:24.820Z,82.20
2023-02-11T12:22:20.546Z,82.25
2023-02-11T12:27:21.014Z,82.20
2023-02-11T12:32:33.548Z,82.49
2023-02-11T12:37:52.399Z,82.38
2023-02-11T12:43:19.695Z,82.61
2023-02-11T12:48:34.784Z,82.79
2023-02-11T12:53:37.852Z,82.94
2023-02-11T12:58:44.573Z,83.32
2023-02-11T13:03:44.497Z,83.35
2023-02-11T13:08:47.180Z,83.52
2023-02-11T13:13:53.977Z,83.47
2023-02-11T13:18:48.419Z,83.52
2023-02-11T13:24:12.992Z,83.52
2023-02-11T13:29:17.336Z,83.53
2023-02-11T13:34:54.372Z,83.80
2023-02-11T13:40:19.652Z,83.70
2023-02-11T13:45:30.896Z,83.93
2023-02-11T13:50:26.067Z,83.81
2023-02-11T13:55:25.001Z,83.71
2023-02-11T14:00:35.815Z,84.02
2023-02-11T14:05:51.254Z,83.92
2023-02-11T14:10:44.012Z,84.07
2023-02-11T14:15:41.554Z,84.13
2023-02-11T14:20:42.234Z,84.08
2023-02-11T14:25:35.866Z,84.33
2023-02-11T14:30:28.658Z,84.25
2023-02-11T14:35:45.096Z,84.09
2023-02-11T14:41:07.046Z,84.21
2023-02-11T14:46:02.718Z,84.33
2023-02-11T14:51:02.667Z,84.38
2023-02-11T14:55:56.812Z,84.18
2023-02-11T15:00:49.969Z,84.57
2023-02-11T15:05:43.107Z,84.46
2023-02-11T15:10:42.602Z,84.43
2023-02-11T15:15:37.862Z,84.51
2023-02-11T15:20:33.628Z,84.56
2023-02-11T15:25:28.162Z,84.71
2023-02-11T15:30:24.012Z,84.82
2023-02-11T15:35:17.574Z,84.91
2023-02-11T15:40:19.744Z,85.01
2023-02-11T15:45:15.524Z,84.97
2023-02-11T15:50:09.647Z,84.92
2023-02-11T15:55:03.277Z,84.96
2023-02-11T15:59:57.406Z,85.03
2023-02-11T16:04:58.735Z,85.10
2023-02-11T16:09:59.593Z,84.97
2023-02-11T16:14:52.611Z,85.11
2023-02-11T16:19:48.617Z,84.97
2023-02-11T16:24:41.402Z,84.99
2023-02-11T16:29:38.246Z,85.07
2023-02-11T16:34:31.203Z,85.16
2023-02-11T16:39:24.388Z,85.21
2023-02-11T16:44:20.716Z,85.14
2023-02-11T16:49:27.634Z,85.27
2023-02-11T16:54:21.636Z,85.34
2023-02-11T16:59:14.719Z,85.38
2023-02-11T17:04:08.555Z,85.33
2023-02-11T17:09:01.744Z,85.36
2023-02-11T17:13:54.574Z,85.27
2023-02-11T17:18:48.690Z,85.34
2023-02-11T17:23:41.517Z,85.22
2023-02-11T17:28:35.696Z,85.18
2023-02-11T17:33:28.815Z,85.36
2023-02-11T17:38:21.594Z,85.35
2023-02-11T17:43:15.847Z,85.45
2023-02-11T17:48:08.706Z,85.45
2023-02-11T17:53:01.512Z,85.46
2023-02-11T17:57:55.451Z,85.37
2023-02-11T18:02:48.209Z,85.46
2023-02-11T18:07:41.037Z,85.44
2023-02-11T18:12:33.831Z,85.35
2023-02-11T18:17:27.133Z,85.30
2023-02-11T18:22:19.889Z,85.29
2023-02-11T18:27:13.373Z,85.38
2023-02-11T18:32:06.637Z,85.55
2023-02-11T18:36:59.445Z,85.46
2023-02-11T18:41:54.693Z,85.46
2023-02-11T18:46:47.470Z,85.33
2023-02-11T18:51:40.261Z,85.38
2023-02-11T18:56:33.048Z,85.45
2023-02-11T19:01:27.971Z,85.58
2023-02-11T19:06:25.886Z,85.59
2023-02-11T19:11:19.974Z,85.63
2023-02-11T19:16:14.968Z,85.63
2023-02-11T19:21:10.073Z,85.66
2023-02-11T19:26:04.709Z,85.68
2023-02-11T19:30:57.704Z,85.55
2023-02-11T19:35:50.886Z,85.55
2023-02-11T19:40:44.010Z,85.48
2023-02-11T19:45:39.035Z,85.50
2023-02-11T19:50:31.822Z,85.36
2023-02-11T19:55:24.955Z,85.41
2023-02-11T20:00:18.072Z,85.36
2023-02-11T20:05:11.177Z,85.36
2023-02-11T20:10:04.184Z,85.12
2023-02-11T20:14:57.000Z,85.15
2023-02-11T20:19:49.898Z,85.07
2023-02-11T20:24:42.782Z,84.96
2023-02-11T20:29:35.834Z,84.85
2023-02-11T20:34:29.599Z,84.77
2023-02-11T20:39:24.366Z,84.88
2023-02-11T20:44:17.445Z,84.82
2023-02-11T20:49:14.894Z,84.86
2023-02-11T20:54:11.842Z,84.78
2023-02-11T20:59:06.563Z,84.71
2023-02-11T21:04:08.570Z,84.68
2023-02-11T21:09:02.078Z,84.38
2023-02-11T21:13:54.901Z,84.18
2023-02-11T21:18:48.578Z,83.80
2023-02-11T21:23:41.933Z,83.51
2023-02-11T21:28:35.372Z,83.06
2023-02-11T21:33:30.409Z,81.75
2023-02-11T21:38:23.435Z,80.91
2023-02-11T21:43:16.220Z,80.82
2023-02-11T21:48:09.477Z,80.64
2023-02-11T21:53:02.354Z,80.19
2023-02-11T21:57:55.861Z,79.71
2023-02-11T22:02:49.889Z,79.16
2023-02-11T22:07:43.080Z,79.12
2023-02-11T22:12:35.898Z,78.94
2023-02-11T22:17:28.750Z,78.28
2023-02-11T22:22:21.557Z,78.03
2023-02-11T22:27:15.322Z,77.70
2023-02-11T22:32:08.480Z,77.30
2023-02-11T22:37:02.715Z,77.09
2023-02-11T22:41:56.716Z,76.36
2023-02-11T22:46:49.633Z,76.05
2023-02-11T22:51:42.451Z,75.98
2023-02-11T22:56:36.268Z,75.89
2023-02-11T23:01:30.451Z,76.12
2023-02-11T23:06:23.296Z,75.79
2023-02-11T23:11:20.589Z,75.64
2023-02-11T23:16:16.816Z,75.63
2023-02-11T23:21:16.634Z,74.91
2023-02-11T23:26:14.731Z,74.98
2023-02-11T23:31:17.699Z,75.46
2023-02-11T23:36:10.946Z,75.13
2023-02-11T23:41:03.756Z,75.24
2023-02-11T23:45:56.915Z,75.06
2023-02-11T23:50:49.835Z,75.07
2023-02-11T23:55:43.786Z,74.88
